createdAt,value
2022-08-05T00:00:50.570Z,9.757374
2022-08-05T00:01:50.432Z,9.757460
2022-08-05T00:02:51.611Z,9.757578
2022-08-05T00:03:50.321Z,9.757512
2022-08-05T00:04:55.306Z,9.757524
2022-08-05T00:06:05.365Z,9.757510
2022-08-05T00:06:51.764Z,9.757556
2022-08-05T00:08:00.336Z,9.757612
2022-08-05T00:08:51.281Z,9.757640
2022-08-05T00:09:50.295Z,9.757782
2022-08-05T00:10:50.340Z,9.757738
2022-08-05T00:11:55.890Z,9.757611
2022-08-05T00:12:56.466Z,9.757632
2022-08-05T00:13:52.985Z,9.757764
2022-08-05T00:14:51.892Z,9.757797
2022-08-05T00:15:55.043Z,9.757784
2022-08-05T00:16:52.497Z,9.757983
2022-08-05T00:17:50.203Z,9.757589
2022-08-05T00:18:50.212Z,9.757395
2022-08-05T00:20:01.825Z,9.757446
2022-08-05T00:20:51.178Z,9.757832
2022-08-05T00:21:50.217Z,9.757946
2022-08-05T00:22:57.453Z,9.757793
2022-08-05T00:23:53.658Z,9.757619
2022-08-05T00:24:55.005Z,9.757541
2022-08-05T00:25:50.134Z,9.757641
2022-08-05T00:26:51.954Z,9.757606
2022-08-05T00:27:50.125Z,9.757575
2022-08-05T00:28:50.117Z,9.757648
2022-08-05T00:29:50.103Z,9.757673
2022-08-05T00:30:52.036Z,9.757727
2022-08-05T00:32:10.562Z,9.757641
2022-08-05T00:32:51.076Z,9.757644
2022-08-05T00:34:55.264Z,9.757678
2022-08-05T00:35:04.654Z,9.757632
2022-08-05T00:36:16.516Z,9.757754
2022-08-05T00:37:10.727Z,9.757567
2022-08-05T00:37:53.965Z,9.757627
2022-08-05T00:38:50.024Z,9.757521
2022-08-05T00:39:58.011Z,9.757510
2022-08-05T00:40:53.210Z,9.757688
2022-08-05T00:41:54.894Z,9.757698
2022-08-05T00:42:50.991Z,9.757689
2022-08-05T00:43:50.161Z,9.757634
2022-08-05T00:44:49.978Z,9.757710
2022-08-05T00:45:49.978Z,9.757772
2022-08-05T00:46:54.139Z,9.757620
2022-08-05T00:47:57.336Z,9.757756
2022-08-05T00:48:51.482Z,9.757719
2022-08-05T00:49:51.789Z,9.757596
2022-08-05T00:50:50.004Z,9.757731
2022-08-05T00:51:52.172Z,9.757691
2022-08-05T00:52:49.926Z,9.757838
2022-08-05T00:54:02.234Z,9.758033
2022-08-05T00:54:50.902Z,9.758110
2022-08-05T00:55:49.891Z,9.757902
2022-08-05T00:56:51.769Z,9.757777
2022-08-05T00:57:55.409Z,9.757901
2022-08-05T00:58:50.863Z,9.758062
2022-08-05T00:59:49.860Z,9.757761
2022-08-05T01:00:49.845Z,9.757607
2022-08-05T01:01:49.910Z,9.757490
2022-08-05T01:02:50.205Z,9.757402
2022-08-05T01:03:50.078Z,9.757379
2022-08-05T01:04:50.394Z,9.757509
2022-08-05T01:05:49.804Z,9.757446
2022-08-05T01:06:51.744Z,9.757396
2022-08-05T01:08:29.790Z,9.757210
2022-08-05T01:08:50.773Z,9.757229
2022-08-05T01:09:55.672Z,9.757411
2022-08-05T01:10:52.278Z,9.757396
2022-08-05T01:11:49.759Z,9.757447
2022-08-05T01:13:05.366Z,9.757360
2022-08-05T01:13:58.494Z,9.757422
2022-08-05T01:14:50.736Z,9.757414
2022-08-05T01:15:49.723Z,9.757401
2022-08-05T01:16:49.716Z,9.757540
2022-08-05T01:17:53.731Z,9.757404
2022-08-05T01:18:56.200Z,9.757492
2022-08-05T01:20:01.614Z,9.757471
2022-08-05T01:20:50.715Z,9.757427
2022-08-05T01:21:50.696Z,9.757409
2022-08-05T01:22:49.730Z,9.757517
2022-08-05T01:23:53.139Z,9.757481
2022-08-05T01:24:49.644Z,9.757632
2022-08-05T01:25:50.250Z,9.757648
2022-08-05T01:26:49.631Z,9.757654
2022-08-05T01:27:55.349Z,9.757610
2022-08-05T01:28:50.621Z,9.757659
2022-08-05T01:29:49.700Z,9.757775
2022-08-05T01:30:53.905Z,9.757598
2022-08-05T01:31:50.622Z,9.756892
2022-08-05T01:32:49.589Z,9.757367
2022-08-05T01:33:53.457Z,9.757448
2022-08-05T01:34:49.671Z,9.757493
2022-08-05T01:35:51.805Z,9.757426
2022-08-05T01:36:49.589Z,9.757420
2022-08-05T01:37:49.545Z,9.757549
2022-08-05T01:38:49.871Z,9.757531
2022-08-05T01:39:50.599Z,9.757477
2022-08-05T01:40:49.516Z,9.757615
2022-08-05T01:41:49.537Z,9.757606
2022-08-05T01:42:49.499Z,9.757429
2022-08-05T01:43:49.490Z,9.757351
2022-08-05T01:44:54.253Z,9.757496
2022-08-05T01:45:56.416Z,9.757518
2022-08-05T01:46:50.505Z,9.757655
2022-08-05T01:47:49.458Z,9.757651
2022-08-05T01:48:50.453Z,9.757559
2022-08-05T01:50:01.335Z,9.757524
2022-08-05T01:50:51.335Z,9.757539
2022-08-05T01:51:51.740Z,9.757498
2022-08-05T01:52:49.704Z,9.757580
2022-08-05T01:53:57.742Z,9.757590
2022-08-05T01:54:52.842Z,9.757465
2022-08-05T01:55:49.396Z,9.757442
2022-08-05T01:58:11.967Z,9.757512
2022-08-05T01:58:12.246Z,9.757484
2022-08-05T01:58:50.831Z,9.757479
2022-08-05T01:59:50.365Z,9.757503
2022-08-05T02:00:49.348Z,9.757431
2022-08-05T02:01:49.429Z,9.757443
2022-08-05T02:02:54.293Z,9.757475
2022-08-05T02:03:50.324Z,9.757321
2022-08-05T02:04:49.659Z,9.757382
2022-08-05T02:05:49.318Z,9.757444
2022-08-05T02:06:49.326Z,9.757402
2022-08-05T02:07:59.834Z,9.757317
2022-08-05T02:08:58.164Z,9.757380
2022-08-05T02:09:50.271Z,9.757408
2022-08-05T02:10:49.279Z,9.757515
2022-08-05T02:11:52.477Z,9.757453
2022-08-05T02:12:50.980Z,9.757525
2022-08-05T02:13:53.648Z,9.757528
2022-08-05T02:14:49.240Z,9.757435
2022-08-05T02:15:49.230Z,9.757419
2022-08-05T02:16:52.313Z,9.757465
2022-08-05T02:18:33.297Z,9.757490
2022-08-05T02:18:50.197Z,9.757429
2022-08-05T02:19:49.197Z,9.757415
2022-08-05T02:20:49.343Z,9.757508
2022-08-05T02:21:49.373Z,9.757552
2022-08-05T02:22:49.164Z,9.757378
2022-08-05T02:23:49.158Z,9.757455
2022-08-05T02:24:51.328Z,9.757365
2022-08-05T02:25:50.558Z,9.757324
2022-08-05T02:26:54.567Z,9.757417
2022-08-05T02:27:59.050Z,9.757533
2022-08-05T02:28:50.127Z,9.757450
2022-08-05T02:29:59.938Z,9.757455
2022-08-05T02:30:51.640Z,9.757404
2022-08-05T02:31:49.098Z,9.757456
2022-08-05T02:32:49.110Z,9.757387
2022-08-05T02:33:49.074Z,9.757395
2022-08-05T02:34:54.516Z,9.757376
2022-08-05T02:35:58.927Z,9.757491
2022-08-05T02:36:50.053Z,9.757519
2022-08-05T02:37:54.176Z,9.757474
2022-08-05T02:38:52.963Z,9.757468
2022-08-05T02:39:51.524Z,9.757558
2022-08-05T02:40:49.025Z,9.757606
2022-08-05T02:41:57.985Z,9.757530
2022-08-05T02:42:52.709Z,9.757613
2022-08-05T02:44:02.919Z,9.757619
2022-08-05T02:44:49.981Z,9.757469
2022-08-05T02:45:52.573Z,9.757543
2022-08-05T02:46:53.817Z,9.757557
2022-08-05T02:48:07.428Z,9.757307
2022-08-05T02:48:49.963Z,9.757458
2022-08-05T02:49:48.947Z,9.757449
2022-08-05T02:50:48.932Z,9.757437
2022-08-05T02:52:04.421Z,9.757433
2022-08-05T02:52:49.931Z,9.757355
2022-08-05T02:53:48.913Z,9.757420
2022-08-05T02:54:51.160Z,9.757448
2022-08-05T02:55:54.651Z,9.757427
2022-08-05T02:56:49.923Z,9.757479
2022-08-05T02:58:09.654Z,9.757321
2022-08-05T02:58:51.239Z,9.757389
2022-08-05T02:59:51.940Z,9.757450
2022-08-05T03:00:48.857Z,9.757469
2022-08-05T03:01:48.946Z,9.757568
2022-08-05T03:02:48.842Z,9.757541
2022-08-05T03:04:02.157Z,9.757550
2022-08-05T03:04:53.241Z,9.757507
2022-08-05T03:06:57.024Z,9.757504
2022-08-05T03:06:59.480Z,9.757568
2022-08-05T03:08:01.396Z,9.757597
2022-08-05T03:08:52.047Z,9.757537
2022-08-05T03:09:51.484Z,9.757553
2022-08-05T03:11:53.129Z,9.757575
2022-08-05T03:11:56.273Z,9.757626
2022-08-05T03:12:51.813Z,9.757623
2022-08-05T03:13:51.896Z,9.757661
2022-08-05T03:14:50.732Z,9.757730
2022-08-05T03:15:48.723Z,9.757615
2022-08-05T03:16:48.751Z,9.757478
2022-08-05T03:17:48.709Z,9.757417
2022-08-05T03:18:49.697Z,9.757447
2022-08-05T03:19:48.693Z,9.757414
2022-08-05T03:20:49.073Z,9.757464
2022-08-05T03:21:50.024Z,9.757428
2022-08-05T03:22:50.503Z,9.757548
2022-08-05T03:23:48.662Z,9.757387
2022-08-05T03:24:51.099Z,9.757389
2022-08-05T03:26:05.045Z,9.757447
2022-08-05T03:26:49.661Z,9.757461
2022-08-05T03:28:00.231Z,9.757408
2022-08-05T03:28:49.618Z,9.757413
2022-08-05T03:30:07.416Z,9.757482
2022-08-05T03:30:49.613Z,9.757475
2022-08-05T03:31:57.262Z,9.757416
2022-08-05T03:32:49.591Z,9.757480
2022-08-05T03:33:52.978Z,9.757466
2022-08-05T03:34:50.996Z,9.757443
2022-08-05T03:35:48.567Z,9.757461
2022-08-05T03:36:48.601Z,9.757500
2022-08-05T03:37:48.546Z,9.757524
2022-08-05T03:38:53.258Z,9.757675
2022-08-05T03:39:59.080Z,9.757503
2022-08-05T03:40:49.591Z,9.757294
2022-08-05T03:41:48.546Z,9.757284
2022-08-05T03:42:52.203Z,9.757394
2022-08-05T03:44:08.815Z,9.757435
2022-08-05T03:44:49.483Z,9.757572
2022-08-05T03:45:57.216Z,9.757621
2022-08-05T03:46:49.495Z,9.757019
2022-08-05T03:47:49.340Z,9.756936
2022-08-05T03:48:48.516Z,9.757428
2022-08-05T03:49:51.229Z,9.757575
2022-08-05T03:50:48.437Z,9.757581
2022-08-05T03:52:48.404Z,9.757505
2022-08-05T03:55:34.061Z,9.757666
2022-08-05T03:55:52.303Z,9.757612
2022-08-05T03:55:53.871Z,9.757849
2022-08-05T03:56:06.028Z,9.757770
2022-08-05T03:56:50.095Z,9.757638
2022-08-05T03:57:48.713Z,9.757642
2022-08-05T03:58:48.382Z,9.757691
2022-08-05T03:59:55.430Z,9.757627
2022-08-05T04:00:51.539Z,9.757644
2022-08-05T04:01:48.512Z,9.757826
2022-08-05T04:02:57.975Z,9.757541
2022-08-05T04:04:09.196Z,9.757613
2022-08-05T04:04:49.317Z,9.757633
2022-08-05T04:05:48.311Z,9.757461
2022-08-05T04:06:51.404Z,9.757620
2022-08-05T04:07:58.653Z,9.757543
2022-08-05T04:08:49.290Z,9.757489
2022-08-05T04:09:53.788Z,9.757491
2022-08-05T04:10:49.271Z,9.757435
2022-08-05T04:11:52.466Z,9.757581
2022-08-05T04:12:48.286Z,9.757387
2022-08-05T04:13:50.610Z,9.757406
2022-08-05T04:14:49.236Z,9.757395
2022-08-05T04:15:53.019Z,9.757437
2022-08-05T04:16:49.217Z,9.757375
2022-08-05T04:17:56.299Z,9.757388
2022-08-05T04:18:54.509Z,9.757274
2022-08-05T04:19:54.506Z,9.757384
2022-08-05T04:20:49.180Z,9.757466
2022-08-05T04:22:09.258Z,9.757419
2022-08-05T04:22:49.197Z,9.757469
2022-08-05T04:24:05.256Z,9.757517
2022-08-05T04:24:52.707Z,9.757442
2022-08-05T04:26:00.243Z,9.757525
2022-08-05T04:26:49.140Z,9.757484
2022-08-05T04:27:58.220Z,9.757478
2022-08-05T04:28:51.349Z,9.757386
2022-08-05T04:29:48.453Z,9.757652
2022-08-05T04:30:48.174Z,9.757550
2022-08-05T04:31:48.445Z,9.757455
2022-08-05T04:32:48.118Z,9.757485
2022-08-05T04:34:17.269Z,9.757480
2022-08-05T04:34:49.066Z,9.757449
2022-08-05T04:36:09.430Z,9.757427
2022-08-05T04:36:50.216Z,9.757355
2022-08-05T04:38:02.305Z,9.757413
2022-08-05T04:38:51.118Z,9.757390
2022-08-05T04:39:52.955Z,9.757481
2022-08-05T04:40:50.773Z,9.757483
2022-08-05T04:41:48.448Z,9.757425
2022-08-05T04:42:48.035Z,9.757481
2022-08-05T04:43:52.038Z,9.757436
2022-08-05T04:44:48.979Z,9.757440
2022-08-05T04:45:55.033Z,9.757403
2022-08-05T04:46:48.965Z,9.757375
2022-08-05T04:47:47.991Z,9.757372
2022-08-05T04:48:47.944Z,9.757367
2022-08-05T04:50:01.645Z,9.757506
2022-08-05T04:51:03.264Z,9.757389
2022-08-05T04:51:48.919Z,9.757394
2022-08-05T04:52:48.942Z,9.757472
2022-08-05T04:53:47.913Z,9.757472
2022-08-05T04:54:49.449Z,9.757492
2022-08-05T04:56:14.702Z,9.757473
2022-08-05T04:56:48.885Z,9.757462
2022-08-05T04:57:54.201Z,9.757409
2022-08-05T04:58:48.865Z,9.757475
2022-08-05T04:59:48.039Z,9.757502
2022-08-05T05:00:50.851Z,9.757451
2022-08-05T05:02:07.118Z,9.757419
2022-08-05T05:02:48.929Z,9.757238
2022-08-05T05:03:47.830Z,9.757380
2022-08-05T05:04:50.505Z,9.757446
2022-08-05T05:06:36.507Z,9.757510
2022-08-05T05:06:49.201Z,9.757502
2022-08-05T05:07:52.992Z,9.757635
2022-08-05T05:08:50.189Z,9.757428
2022-08-05T05:09:47.779Z,9.757432
2022-08-05T05:10:55.920Z,9.757507
2022-08-05T05:11:54.025Z,9.757465
2022-08-05T05:12:48.773Z,9.757474
2022-08-05T05:13:47.747Z,9.757482
2022-08-05T05:14:49.385Z,9.757449
2022-08-05T05:15:59.511Z,9.757500
2022-08-05T05:16:48.714Z,9.757427
2022-08-05T05:17:55.887Z,9.757556
2022-08-05T05:19:16.430Z,9.757524
2022-08-05T05:19:49.689Z,9.757489
2022-08-05T05:20:47.681Z,9.757484
2022-08-05T05:21:47.673Z,9.757437
2022-08-05T05:22:47.669Z,9.757528
2022-08-05T05:24:03.734Z,9.757475
2022-08-05T05:24:58.035Z,9.757439
2022-08-05T05:25:48.648Z,9.757421
2022-08-05T05:26:47.976Z,9.757301
2022-08-05T05:27:53.631Z,9.757424
2022-08-05T05:28:48.647Z,9.757426
2022-08-05T05:30:04.339Z,9.757505
2022-08-05T05:30:49.569Z,9.757245
2022-08-05T05:31:48.653Z,9.757405
2022-08-05T05:32:47.597Z,9.757466
2022-08-05T05:33:58.900Z,9.757480
2022-08-05T05:34:48.566Z,9.757429
2022-08-05T05:35:48.017Z,9.757304
2022-08-05T05:36:47.559Z,9.757369
2022-08-05T05:38:01.396Z,9.757440
2022-08-05T05:38:48.569Z,9.757518
2022-08-05T05:39:47.591Z,9.757480
2022-08-05T05:40:51.205Z,9.757427
2022-08-05T05:41:54.322Z,9.757466
2022-08-05T05:42:48.505Z,9.757430
2022-08-05T05:43:56.791Z,9.757502
2022-08-05T05:44:48.483Z,9.757422
2022-08-05T05:45:48.228Z,9.757548
2022-08-05T05:46:47.779Z,9.757498
2022-08-05T05:48:06.593Z,9.757465
2022-08-05T05:48:49.012Z,9.757457
2022-08-05T05:49:47.454Z,9.757478
2022-08-05T05:50:48.435Z,9.757491
2022-08-05T05:51:50.632Z,9.757389
2022-08-05T05:52:47.425Z,9.757429
2022-08-05T05:53:57.635Z,9.757472
2022-08-05T05:54:50.224Z,9.757539
2022-08-05T05:55:52.111Z,9.757611
2022-08-05T05:56:48.392Z,9.757426
2022-08-05T05:57:52.902Z,9.757434
2022-08-05T05:58:48.398Z,9.757389
2022-08-05T05:59:47.358Z,9.757453
2022-08-05T06:00:47.353Z,9.757594
2022-08-05T06:01:57.831Z,9.757412
2022-08-05T06:02:48.347Z,9.757495
2022-08-05T06:04:01.395Z,9.757405
2022-08-05T06:04:49.343Z,9.757507
2022-08-05T06:05:54.149Z,9.757517
2022-08-05T06:06:49.047Z,9.757588
2022-08-05T06:07:57.798Z,9.757541
2022-08-05T06:08:49.395Z,9.757568
2022-08-05T06:09:59.874Z,9.757547
2022-08-05T06:10:49.190Z,9.757726
2022-08-05T06:12:00.976Z,9.757728
2022-08-05T06:12:48.249Z,9.757646
2022-08-05T06:13:53.877Z,9.757655
2022-08-05T06:14:48.236Z,9.757784
2022-08-05T06:16:30.333Z,9.757723
2022-08-05T06:16:48.213Z,9.757630
2022-08-05T06:17:53.586Z,9.757592
2022-08-05T06:18:48.240Z,9.757546
2022-08-05T06:19:56.988Z,9.757696
2022-08-05T06:20:48.189Z,9.757650
2022-08-05T06:21:49.756Z,9.757557
2022-08-05T06:22:48.171Z,9.757540
2022-08-05T06:23:47.191Z,9.757456
2022-08-05T06:24:48.158Z,9.757594
2022-08-05T06:26:12.237Z,9.757622
2022-08-05T06:26:51.571Z,9.757725
2022-08-05T06:28:11.762Z,9.757597
2022-08-05T06:28:48.148Z,9.757587
2022-08-05T06:30:04.179Z,9.757619
2022-08-05T06:30:49.189Z,9.757571
2022-08-05T06:31:47.106Z,9.757545
2022-08-05T06:32:47.100Z,9.757459
2022-08-05T06:34:07.117Z,9.757552
2022-08-05T06:34:48.074Z,9.757504
2022-08-05T06:36:07.089Z,9.757502
2022-08-05T06:36:57.702Z,9.757456
2022-08-05T06:37:57.450Z,9.757620
2022-08-05T06:38:48.068Z,9.757486
2022-08-05T06:39:47.070Z,9.757484
2022-08-05T06:40:47.022Z,9.757431
2022-08-05T06:41:47.016Z,9.757570
2022-08-05T06:42:47.009Z,9.757694
2022-08-05T06:43:58.550Z,9.757669
2022-08-05T06:44:49.291Z,9.757595
2022-08-05T06:46:06.528Z,9.757704
2022-08-05T06:46:47.973Z,9.757844
2022-08-05T06:48:37.316Z,9.757781
2022-08-05T06:48:55.503Z,9.757832
2022-08-05T06:50:01.354Z,9.757932
2022-08-05T06:50:47.934Z,9.758048
2022-08-05T06:51:46.935Z,9.758018
2022-08-05T06:52:58.617Z,9.757988
2022-08-05T06:53:53.747Z,9.757833
2022-08-05T06:54:52.051Z,9.757736
2022-08-05T06:55:47.904Z,9.757792
2022-08-05T06:56:54.905Z,9.757627
2022-08-05T06:58:03.305Z,9.757516
2022-08-05T06:58:47.865Z,9.757511
2022-08-05T06:59:48.537Z,9.757417
2022-08-05T07:00:47.867Z,9.757247
2022-08-05T07:01:46.878Z,9.757251
2022-08-05T07:02:47.840Z,9.757294
2022-08-05T07:03:47.826Z,9.757368
2022-08-05T07:04:46.858Z,9.757437
2022-08-05T07:05:46.812Z,9.757417
2022-08-05T07:06:46.805Z,9.757560
2022-08-05T07:07:46.797Z,9.757511
2022-08-05T07:08:47.187Z,9.757359
2022-08-05T07:09:46.810Z,9.757338
2022-08-05T07:10:52.586Z,9.757273
2022-08-05T07:11:51.421Z,9.757336
2022-08-05T07:12:49.133Z,9.757490
2022-08-05T07:13:57.535Z,9.757560
2022-08-05T07:14:47.763Z,9.757468
2022-08-05T07:16:01.995Z,9.757510
2022-08-05T07:17:58.981Z,9.757439
2022-08-05T07:18:09.381Z,9.757488
2022-08-05T07:18:48.026Z,9.757524
2022-08-05T07:20:48.689Z,9.757484
2022-08-05T07:22:00.886Z,9.757516
2022-08-05T07:22:47.944Z,9.757413
2022-08-05T07:23:49.179Z,9.757571
2022-08-05T07:24:52.470Z,9.757449
2022-08-05T07:25:55.016Z,9.757421
2022-08-05T07:26:48.637Z,9.757397
2022-08-05T07:27:58.799Z,9.757565
2022-08-05T07:28:47.620Z,9.757619
2022-08-05T07:30:22.802Z,9.757555
2022-08-05T07:30:50.269Z,9.757287
2022-08-05T07:31:54.715Z,9.757424
2022-08-05T07:32:50.930Z,9.757640
2022-08-05T07:33:47.577Z,9.757616
2022-08-05T07:34:46.641Z,9.757608
2022-08-05T07:36:04.783Z,9.757593
2022-08-05T07:36:47.557Z,9.757468
2022-08-05T07:37:47.317Z,9.757433
2022-08-05T07:38:46.550Z,9.757393
2022-08-05T07:40:26.305Z,9.757478
2022-08-05T07:40:47.575Z,9.757482
2022-08-05T07:42:08.032Z,9.757508
2022-08-05T07:42:47.513Z,9.757420
2022-08-05T07:43:46.504Z,9.757429
2022-08-05T07:44:46.529Z,9.757376
2022-08-05T07:45:57.395Z,9.757418
2022-08-05T07:46:48.390Z,9.757457
2022-08-05T07:47:46.474Z,9.757447
2022-08-05T07:49:01.797Z,9.757437
2022-08-05T07:49:54.678Z,9.757419
2022-08-05T07:50:47.444Z,9.757259
2022-08-05T07:51:53.877Z,9.757152
2022-08-05T07:52:47.420Z,9.757372
2022-08-05T07:53:50.507Z,9.757437
2022-08-05T07:54:49.126Z,9.757456
2022-08-05T07:56:06.453Z,9.757582
2022-08-05T07:57:01.827Z,9.757493
2022-08-05T07:57:57.509Z,9.757419
2022-08-05T07:58:54.776Z,9.757399
2022-08-05T07:59:49.007Z,9.757303
2022-08-05T08:00:46.405Z,9.757404
2022-08-05T08:01:52.292Z,9.757419
2022-08-05T08:03:15.420Z,9.757390
2022-08-05T08:03:47.372Z,9.757419
2022-08-05T08:04:46.367Z,9.757403
2022-08-05T08:05:49.811Z,9.757444
2022-08-05T08:06:47.312Z,9.757412
2022-08-05T08:07:58.863Z,9.757264
2022-08-05T08:08:47.307Z,9.757334
2022-08-05T08:09:46.318Z,9.757382
2022-08-05T08:10:48.693Z,9.757520
2022-08-05T08:11:49.467Z,9.757467
2022-08-05T08:12:48.681Z,9.757333
2022-08-05T08:14:00.892Z,9.757106
2022-08-05T08:14:47.292Z,9.757354
2022-08-05T08:16:49.761Z,9.757357
2022-08-05T08:16:51.452Z,9.757407
2022-08-05T08:17:52.489Z,9.757447
2022-08-05T08:18:49.913Z,9.757493
2022-08-05T08:20:43.642Z,9.757410
2022-08-05T08:21:03.001Z,9.757451
2022-08-05T08:21:47.186Z,9.757483
2022-08-05T08:22:46.176Z,9.757468
2022-08-05T08:24:01.768Z,9.757408
2022-08-05T08:24:51.359Z,9.757439
2022-08-05T08:26:00.457Z,9.757520
2022-08-05T08:26:47.143Z,9.757544
2022-08-05T08:27:47.771Z,9.757551
2022-08-05T08:28:58.928Z,9.757505
2022-08-05T08:30:05.897Z,9.757345
2022-08-05T08:30:47.855Z,9.757401
2022-08-05T08:31:46.111Z,9.757549
2022-08-05T08:32:46.102Z,9.757495
2022-08-05T08:33:46.091Z,9.757433
2022-08-05T08:34:47.138Z,9.757512
2022-08-05T08:35:53.112Z,9.757583
2022-08-05T08:36:52.618Z,9.757568
2022-08-05T08:37:47.066Z,9.757421
2022-08-05T08:38:53.254Z,9.757566
2022-08-05T08:39:49.550Z,9.757818
2022-08-05T08:40:51.548Z,9.757651
2022-08-05T08:41:51.737Z,9.757631
2022-08-05T08:42:52.377Z,9.757649
2022-08-05T08:45:16.542Z,9.757446
2022-08-05T08:45:22.763Z,9.757473
2022-08-05T08:45:46.988Z,9.757483
2022-08-05T08:46:45.983Z,9.757606
2022-08-05T08:48:05.917Z,9.757659
2022-08-05T08:49:06.238Z,9.757822
2022-08-05T08:50:06.103Z,9.757760
2022-08-05T08:51:03.411Z,9.757637
2022-08-05T08:52:05.887Z,9.757576
2022-08-05T08:52:51.387Z,9.757522
2022-08-05T08:53:46.019Z,9.757508
2022-08-05T08:54:46.045Z,9.757530
2022-08-05T08:56:03.605Z,9.757643
2022-08-05T08:56:47.632Z,9.757566
2022-08-05T08:57:57.863Z,9.757578
2022-08-05T08:58:48.705Z,9.757537
2022-08-05T08:59:47.171Z,9.757454
2022-08-05T09:00:45.986Z,9.757478
2022-08-05T09:01:45.862Z,9.757431
2022-08-05T09:02:46.861Z,9.757410
2022-08-05T09:03:45.851Z,9.757386
2022-08-05T09:04:58.250Z,9.757476
2022-08-05T09:06:08.603Z,9.757648
2022-08-05T09:06:46.815Z,9.757516
2022-08-05T09:07:57.506Z,9.757595
2022-08-05T09:08:46.830Z,9.757524
2022-08-05T09:09:45.830Z,9.757499
2022-08-05T09:10:46.734Z,9.757431
2022-08-05T09:11:52.860Z,9.757334
2022-08-05T09:12:51.056Z,9.757460
2022-08-05T09:14:00.803Z,9.757330
2022-08-05T09:14:57.153Z,9.757524
2022-08-05T09:15:46.753Z,9.757583
2022-08-05T09:16:49.026Z,9.757492
2022-08-05T09:17:49.565Z,9.757575
2022-08-05T09:18:45.729Z,9.757602
2022-08-05T09:20:01.420Z,9.757676
2022-08-05T09:20:46.716Z,9.757657
2022-08-05T09:22:21.999Z,9.757606
2022-08-05T09:22:51.790Z,9.757653
2022-08-05T09:23:46.696Z,9.757568
2022-08-05T09:24:45.730Z,9.757547
2022-08-05T09:26:03.069Z,9.757669
2022-08-05T09:26:46.674Z,9.757575
2022-08-05T09:28:04.890Z,9.757461
2022-08-05T09:28:46.665Z,9.757470
2022-08-05T09:29:47.935Z,9.757422
2022-08-05T09:30:45.646Z,9.757440
2022-08-05T09:32:41.483Z,9.757416
2022-08-05T09:32:46.988Z,9.757458
2022-08-05T09:33:45.620Z,9.757478
2022-08-05T09:34:45.649Z,9.757526
2022-08-05T09:35:45.614Z,9.757545
2022-08-05T09:36:56.173Z,9.757469
2022-08-05T09:38:16.459Z,9.757473
2022-08-05T09:38:46.581Z,9.757462
2022-08-05T09:39:55.889Z,9.757414
2022-08-05T09:40:52.501Z,9.757489
2022-08-05T09:41:46.574Z,9.757494
2022-08-05T09:42:48.404Z,9.757479
2022-08-05T09:43:45.549Z,9.757531
2022-08-05T09:44:45.533Z,9.757534
2022-08-05T09:46:06.857Z,9.757575
2022-08-05T09:46:51.711Z,9.757541
2022-08-05T09:47:55.588Z,9.757565
2022-08-05T09:49:06.521Z,9.757519
2022-08-05T09:50:01.281Z,9.757528
2022-08-05T09:50:46.510Z,9.757566
2022-08-05T09:51:49.677Z,9.757525
2022-08-05T09:52:45.472Z,9.757584
2022-08-05T09:53:54.805Z,9.757842
2022-08-05T09:54:46.456Z,9.757874
2022-08-05T09:55:57.261Z,9.757298
2022-08-05T09:56:52.320Z,9.757568
2022-08-05T09:57:46.427Z,9.757655
2022-08-05T09:58:45.425Z,9.757279
2022-08-05T09:59:45.415Z,9.757056
2022-08-05T10:00:45.439Z,9.757581
2022-08-05T10:01:45.765Z,9.757684
2022-08-05T10:02:45.442Z,9.757545
2022-08-05T10:03:58.936Z,9.757555
2022-08-05T10:04:46.378Z,9.757494
2022-08-05T10:05:45.397Z,9.757496
2022-08-05T10:06:49.808Z,9.757508
2022-08-05T10:08:36.482Z,9.757695
2022-08-05T10:08:53.765Z,9.757762
2022-08-05T10:09:46.333Z,9.757755
2022-08-05T10:10:48.269Z,9.757695
2022-08-05T10:11:45.468Z,9.757818
2022-08-05T10:12:49.716Z,9.757775
2022-08-05T10:13:48.247Z,9.757612
2022-08-05T10:14:45.296Z,9.757590
2022-08-05T10:15:45.319Z,9.757584
2022-08-05T10:16:52.857Z,9.757673
2022-08-05T10:17:56.846Z,9.757748
2022-08-05T10:18:48.213Z,9.757740
2022-08-05T10:20:04.503Z,9.757753
2022-08-05T10:20:48.341Z,9.757700
2022-08-05T10:21:45.278Z,9.757603
2022-08-05T10:22:50.957Z,9.757418
2022-08-05T10:23:55.393Z,9.757457
2022-08-05T10:24:46.221Z,9.757547
2022-08-05T10:25:45.240Z,9.757635
2022-08-05T10:26:51.459Z,9.757629
2022-08-05T10:28:13.080Z,9.757574
2022-08-05T10:28:46.590Z,9.757707
2022-08-05T10:30:06.719Z,9.758087
2022-08-05T10:32:50.750Z,9.758095
2022-08-05T10:32:52.647Z,9.757881
2022-08-05T10:32:54.860Z,9.757633
2022-08-05T10:33:46.160Z,9.757619
2022-08-05T10:34:46.177Z,9.757707
2022-08-05T10:35:48.439Z,9.757736
2022-08-05T10:36:46.121Z,9.757673
2022-08-05T10:37:45.311Z,9.757786
2022-08-05T10:38:45.162Z,9.757765
2022-08-05T10:40:03.946Z,9.757760
2022-08-05T10:40:46.140Z,9.757801
2022-08-05T10:41:47.159Z,9.757731
2022-08-05T10:42:45.080Z,9.757580
2022-08-05T10:43:45.076Z,9.757629
2022-08-05T10:44:45.087Z,9.757729
2022-08-05T10:45:45.067Z,9.757592
2022-08-05T10:46:45.047Z,9.757600
2022-08-05T10:47:56.103Z,9.757684
2022-08-05T10:48:58.063Z,9.757662
2022-08-05T10:49:48.803Z,9.757591
2022-08-05T10:50:45.025Z,9.757421
2022-08-05T10:51:53.168Z,9.757355
2022-08-05T10:52:49.548Z,9.757403
2022-08-05T10:53:45.302Z,9.757414
2022-08-05T10:54:47.098Z,9.757374
2022-08-05T10:56:05.404Z,9.757367
2022-08-05T10:56:45.961Z,9.757437
2022-08-05T10:57:44.958Z,9.757431
2022-08-05T10:58:48.705Z,9.757445
2022-08-05T11:00:03.101Z,9.757444
2022-08-05T11:00:45.965Z,9.757438
2022-08-05T11:01:54.899Z,9.757372
2022-08-05T11:02:50.503Z,9.757446
2022-08-05T11:03:45.981Z,9.757468
2022-08-05T11:04:44.909Z,9.757440
2022-08-05T11:05:44.923Z,9.757414
2022-08-05T11:06:44.889Z,9.757418
2022-08-05T11:08:01.760Z,9.757421
2022-08-05T11:08:45.873Z,9.757557
2022-08-05T11:09:46.130Z,9.757473
2022-08-05T11:10:50.208Z,9.757386
2022-08-05T11:11:52.860Z,9.757208
2022-08-05T11:12:54.199Z,9.757344
2022-08-05T11:13:57.587Z,9.757427
2022-08-05T11:15:19.427Z,9.757475
2022-08-05T11:16:00.778Z,9.757469
2022-08-05T11:16:56.095Z,9.757498
2022-08-05T11:18:09.828Z,9.757426
2022-08-05T11:18:46.958Z,9.757498
2022-08-05T11:20:10.251Z,9.757503
2022-08-05T11:20:45.815Z,9.757438
2022-08-05T11:21:48.851Z,9.757442
2022-08-05T11:22:44.762Z,9.757427
2022-08-05T11:24:04.102Z,9.757553
2022-08-05T11:24:50.572Z,9.757379
2022-08-05T11:26:05.499Z,9.757394
2022-08-05T11:26:49.772Z,9.757419
2022-08-05T11:27:51.784Z,9.757457
2022-08-05T11:28:45.728Z,9.757442
2022-08-05T11:29:44.718Z,9.757418
2022-08-05T11:30:44.734Z,9.757637
2022-08-05T11:31:57.686Z,9.757501
2022-08-05T11:32:47.794Z,9.757384
2022-08-05T11:33:47.964Z,9.757399
2022-08-05T11:34:51.920Z,9.757562
2022-08-05T11:36:07.615Z,9.757570
2022-08-05T11:36:45.659Z,9.757518
2022-08-05T11:38:29.278Z,9.757435
2022-08-05T11:38:51.235Z,9.757516
2022-08-05T11:39:48.003Z,9.757691
2022-08-05T11:40:44.628Z,9.757409
2022-08-05T11:42:01.264Z,9.757404
2022-08-05T11:42:45.612Z,9.757355
2022-08-05T11:44:04.787Z,9.757578
2022-08-05T11:44:54.027Z,9.757604
2022-08-05T11:46:27.214Z,9.757454